createdAt,value
2023-04-02T00:00:47.670Z,2.00
2023-04-02T00:01:48.705Z,1.90
2023-04-02T00:02:47.698Z,2.50
2023-04-02T00:03:47.785Z,1.60
2023-04-02T00:04:47.629Z,2.10
2023-04-02T00:05:47.597Z,2.10
2023-04-02T00:06:48.622Z,1.80
2023-04-02T00:07:47.642Z,1.70
2023-04-02T00:08:47.590Z,1.90
2023-04-02T00:09:47.606Z,1.70
2023-04-02T00:10:47.611Z,1.70
2023-04-02T00:11:47.589Z,1.80
2023-04-02T00:12:47.576Z,1.90
2023-04-02T00:13:47.557Z,1.90
2023-04-02T00:14:47.559Z,1.80
2023-04-02T00:15:47.581Z,2.20
2023-04-02T00:16:47.674Z,2.20
2023-04-02T00:17:47.570Z,2.50
2023-04-02T00:18:47.592Z,2.00
2023-04-02T00:19:47.533Z,2.80
2023-04-02T00:20:47.535Z,2.80
2023-04-02T00:21:47.528Z,2.60
2023-04-02T00:22:47.549Z,2.70
2023-04-02T00:23:47.505Z,2.60
2023-04-02T00:24:47.489Z,2.60
2023-04-02T00:25:47.483Z,2.90
2023-04-02T00:26:47.471Z,2.20
2023-04-02T00:27:47.499Z,2.30
2023-04-02T00:28:47.474Z,2.50
2023-04-02T00:29:47.448Z,2.10
2023-04-02T00:30:47.447Z,2.20
2023-04-02T00:31:47.509Z,2.50
2023-04-02T00:32:47.456Z,2.60
2023-04-02T00:33:47.439Z,2.90
2023-04-02T00:34:47.434Z,3.00
2023-04-02T00:35:47.422Z,2.90
2023-04-02T00:36:47.463Z,2.50
2023-04-02T00:37:47.410Z,2.20
2023-04-02T00:38:48.719Z,2.20
2023-04-02T00:39:52.448Z,2.60
2023-04-02T00:40:47.404Z,2.30
2023-04-02T00:41:47.387Z,2.30
2023-04-02T00:42:47.409Z,2.30
2023-04-02T00:43:47.387Z,2.50
2023-04-02T00:44:47.361Z,2.80
2023-04-02T00:45:47.387Z,3.10
2023-04-02T00:46:47.513Z,2.80
2023-04-02T00:47:47.372Z,2.40
2023-04-02T00:48:47.344Z,3.00
2023-04-02T00:49:47.327Z,2.50
2023-04-02T00:50:47.390Z,3.40
2023-04-02T00:51:47.324Z,3.00
2023-04-02T00:52:47.312Z,3.50
2023-04-02T00:53:47.304Z,3.20
2023-04-02T00:54:47.292Z,3.40
2023-04-02T00:55:47.317Z,3.50
2023-04-02T00:56:47.382Z,3.80
2023-04-02T00:57:47.289Z,3.00
2023-04-02T00:58:47.261Z,3.70
2023-04-02T00:59:47.261Z,4.40
2023-04-02T01:00:47.281Z,3.30
2023-04-02T01:01:47.305Z,4.10
2023-04-02T01:02:47.392Z,3.60
2023-04-02T01:03:47.253Z,3.10
2023-04-02T01:04:47.230Z,3.90
2023-04-02T01:05:47.246Z,3.50
2023-04-02T01:06:47.242Z,2.80
2023-04-02T01:07:47.218Z,3.60
2023-04-02T01:08:47.193Z,3.50
2023-04-02T01:09:47.202Z,3.90
2023-04-02T01:10:47.209Z,3.10
2023-04-02T01:11:47.201Z,3.50
2023-04-02T01:12:47.208Z,2.70
2023-04-02T01:13:47.172Z,2.60
2023-04-02T01:14:48.248Z,3.00
2023-04-02T01:15:47.215Z,3.00
2023-04-02T01:16:47.196Z,3.70
2023-04-02T01:17:47.159Z,3.50
2023-04-02T01:18:47.145Z,3.60
2023-04-02T01:19:47.160Z,3.70
2023-04-02T01:20:47.134Z,3.80
2023-04-02T01:21:47.126Z,3.40
2023-04-02T01:22:47.173Z,3.80
2023-04-02T01:23:47.959Z,4.20
2023-04-02T01:24:48.107Z,3.30
2023-04-02T01:25:47.095Z,3.60
2023-04-02T01:26:47.102Z,3.10
2023-04-02T01:27:47.082Z,3.20
2023-04-02T01:28:47.079Z,3.70
2023-04-02T01:29:47.069Z,3.60
2023-04-02T01:30:48.067Z,3.70
2023-04-02T01:31:47.084Z,4.50
2023-04-02T01:32:47.111Z,4.40
2023-04-02T01:33:47.098Z,4.80
2023-04-02T01:34:47.053Z,3.50
2023-04-02T01:35:47.063Z,3.50
2023-04-02T01:36:47.049Z,3.60
2023-04-02T01:37:47.031Z,4.00
2023-04-02T01:38:47.006Z,3.90
2023-04-02T01:39:47.010Z,4.00
2023-04-02T01:40:46.996Z,4.20
2023-04-02T01:41:47.030Z,4.80
2023-04-02T01:42:46.997Z,3.50
2023-04-02T01:43:46.993Z,4.00
2023-04-02T01:44:46.974Z,4.40
2023-04-02T01:45:46.979Z,4.20
2023-04-02T01:46:47.045Z,3.80
2023-04-02T01:47:46.967Z,4.20
2023-04-02T01:48:46.983Z,4.30
2023-04-02T01:49:46.949Z,3.90
2023-04-02T01:50:46.944Z,4.20
2023-04-02T01:51:46.939Z,4.50
2023-04-02T01:52:46.940Z,4.50
2023-04-02T01:53:46.977Z,4.30
2023-04-02T01:54:46.921Z,4.50
2023-04-02T01:55:46.935Z,4.40
2023-04-02T01:56:46.997Z,4.90
2023-04-02T01:57:46.904Z,4.20
2023-04-02T01:58:46.901Z,4.40
2023-04-02T01:59:46.918Z,4.30
2023-04-02T02:00:46.967Z,4.30
2023-04-02T02:01:46.896Z,4.10
2023-04-02T02:02:46.966Z,4.10
2023-04-02T02:03:46.870Z,3.00
2023-04-02T02:04:46.881Z,4.00
2023-04-02T02:05:46.862Z,3.70
2023-04-02T02:06:46.866Z,3.80
2023-04-02T02:07:46.853Z,3.80
2023-04-02T02:08:46.900Z,4.00
2023-04-02T02:09:46.876Z,3.60
2023-04-02T02:10:46.829Z,3.20
2023-04-02T02:11:46.845Z,2.90
2023-04-02T02:12:46.830Z,3.70
2023-04-02T02:13:46.811Z,2.60
2023-04-02T02:14:46.799Z,2.60
2023-04-02T02:15:46.790Z,2.90
2023-04-02T02:16:46.915Z,2.50
2023-04-02T02:17:46.819Z,2.50
2023-04-02T02:18:46.778Z,2.90
2023-04-02T02:19:47.807Z,3.20
2023-04-02T02:20:46.777Z,3.30
2023-04-02T02:21:46.754Z,2.50
2023-04-02T02:22:46.777Z,3.50
2023-04-02T02:23:46.782Z,3.50
2023-04-02T02:24:47.204Z,3.00
2023-04-02T02:25:46.737Z,2.80
2023-04-02T02:26:46.734Z,2.50
2023-04-02T02:27:46.736Z,2.50
2023-04-02T02:28:46.735Z,2.70
2023-04-02T02:29:46.740Z,2.80
2023-04-02T02:30:46.745Z,2.40
2023-04-02T02:31:46.868Z,2.00
2023-04-02T02:32:46.705Z,1.90
2023-04-02T02:33:46.705Z,1.90
2023-04-02T02:34:46.704Z,2.00
2023-04-02T02:35:46.717Z,2.10
2023-04-02T02:36:46.683Z,2.20
2023-04-02T02:37:46.685Z,2.40
2023-04-02T02:38:46.686Z,2.00
2023-04-02T02:39:46.663Z,2.20
2023-04-02T02:40:46.713Z,2.20
2023-04-02T02:41:46.664Z,2.40
2023-04-02T02:42:46.655Z,2.10
2023-04-02T02:43:47.652Z,1.90
2023-04-02T02:44:46.662Z,1.90
2023-04-02T02:45:46.730Z,1.80
2023-04-02T02:46:46.636Z,1.70
2023-04-02T02:47:46.631Z,2.00
2023-04-02T02:48:46.615Z,2.20
2023-04-02T02:49:46.601Z,1.90
2023-04-02T02:50:46.619Z,2.10
2023-04-02T02:51:46.614Z,2.30
2023-04-02T02:52:47.604Z,2.10
2023-04-02T02:53:46.576Z,1.80
2023-04-02T02:54:46.591Z,1.60
2023-04-02T02:55:46.604Z,3.20
2023-04-02T02:56:46.611Z,2.30
2023-04-02T02:57:46.574Z,1.90
2023-04-02T02:58:46.551Z,1.90
2023-04-02T02:59:46.566Z,1.80
2023-04-02T03:00:46.561Z,2.10
2023-04-02T03:01:46.572Z,2.00
2023-04-02T03:02:46.626Z,2.20
2023-04-02T03:03:46.738Z,2.00
2023-04-02T03:04:46.514Z,2.00
2023-04-02T03:05:46.526Z,1.90
2023-04-02T03:06:46.519Z,2.30
2023-04-02T03:07:46.517Z,2.10
2023-04-02T03:08:46.490Z,2.20
2023-04-02T03:09:46.495Z,2.10
2023-04-02T03:10:46.486Z,2.00
2023-04-02T03:11:46.499Z,2.10
2023-04-02T03:12:46.500Z,2.20
2023-04-02T03:13:46.659Z,2.00
2023-04-02T03:14:46.470Z,2.40
2023-04-02T03:15:46.483Z,2.20
2023-04-02T03:16:46.457Z,2.00
2023-04-02T03:17:46.532Z,2.20
2023-04-02T03:18:46.464Z,2.40
2023-04-02T03:19:46.438Z,2.10
2023-04-02T03:20:46.467Z,2.30
2023-04-02T03:21:46.415Z,3.00
2023-04-02T03:22:46.444Z,2.60
2023-04-02T03:23:46.441Z,3.00
2023-04-02T03:24:46.424Z,2.70
2023-04-02T03:25:46.413Z,2.70
2023-04-02T03:26:46.423Z,2.70
2023-04-02T03:27:46.409Z,2.70
2023-04-02T03:28:46.379Z,2.90
2023-04-02T03:29:46.375Z,3.00
2023-04-02T03:30:46.391Z,3.10
2023-04-02T03:31:46.506Z,2.80
2023-04-02T03:32:46.421Z,2.60
2023-04-02T03:33:46.405Z,2.50
2023-04-02T03:34:46.391Z,3.00
2023-04-02T03:35:49.998Z,3.10
2023-04-02T03:36:50.252Z,2.90
2023-04-02T03:37:49.540Z,2.70
2023-04-02T03:38:47.574Z,2.90
2023-04-02T03:39:49.844Z,2.70
2023-04-02T03:40:50.178Z,3.00
2023-04-02T03:41:50.462Z,2.80
2023-04-02T03:42:49.999Z,2.70
2023-04-02T03:43:50.520Z,3.20
2023-04-02T03:44:48.255Z,2.70
2023-04-02T03:45:52.198Z,2.90
2023-04-02T03:46:48.637Z,2.20
2023-04-02T03:47:50.058Z,2.70
2023-04-02T03:48:48.495Z,2.40
2023-04-02T03:49:48.709Z,3.10
2023-04-02T03:50:52.249Z,3.10
2023-04-02T03:51:48.284Z,2.40
2023-04-02T03:52:49.439Z,2.40
2023-04-02T03:53:51.235Z,2.70
2023-04-02T03:54:53.812Z,2.50
2023-04-02T03:55:50.098Z,2.80
2023-04-02T03:56:50.608Z,2.80
2023-04-02T03:57:47.038Z,2.80
2023-04-02T03:58:48.984Z,2.40
2023-04-02T03:59:50.247Z,3.00
2023-04-02T04:00:48.321Z,2.30
2023-04-02T04:01:48.664Z,2.40
2023-04-02T04:02:51.060Z,2.90
2023-04-02T04:03:48.507Z,2.30
2023-04-02T04:04:51.530Z,2.50
2023-04-02T04:05:47.576Z,2.40
2023-04-02T04:06:50.491Z,2.50
2023-04-02T04:07:47.286Z,2.20
2023-04-02T04:08:49.556Z,1.80
2023-04-02T04:09:48.272Z,2.30
2023-04-02T04:10:50.559Z,2.00
2023-04-02T04:11:47.833Z,2.00
2023-04-02T04:12:48.722Z,2.20
2023-04-02T04:13:47.742Z,1.90
2023-04-02T04:14:48.512Z,2.30
2023-04-02T04:15:48.106Z,2.00
2023-04-02T04:16:48.414Z,2.60
2023-04-02T04:17:48.499Z,2.10
2023-04-02T04:18:47.244Z,2.00
2023-04-02T04:19:47.576Z,2.20
2023-04-02T04:20:48.704Z,2.40
2023-04-02T04:21:50.911Z,2.30
2023-04-02T04:22:49.247Z,2.20
2023-04-02T04:23:49.120Z,2.30
2023-04-02T04:24:47.966Z,2.10
2023-04-02T04:25:48.670Z,2.00
2023-04-02T04:26:50.414Z,1.90
2023-04-02T04:27:48.771Z,2.10
2023-04-02T04:28:48.913Z,3.10
2023-04-02T04:29:49.160Z,2.20
2023-04-02T04:30:48.493Z,2.00
2023-04-02T04:31:47.870Z,2.40
2023-04-02T04:32:47.276Z,2.60
2023-04-02T04:33:50.052Z,2.10
2023-04-02T04:34:46.667Z,2.50
2023-04-02T04:35:49.165Z,2.60
2023-04-02T04:36:54.032Z,2.70
2023-04-02T04:37:47.215Z,2.90
2023-04-02T04:38:57.212Z,2.90
2023-04-02T04:39:48.965Z,3.00
2023-04-02T04:40:48.319Z,3.30
2023-04-02T04:41:46.997Z,3.60
2023-04-02T04:42:51.503Z,3.70
2023-04-02T04:43:48.917Z,3.90
2023-04-02T04:44:47.482Z,3.50
2023-04-02T04:45:47.047Z,4.00
2023-04-02T04:46:47.996Z,4.00
2023-04-02T04:47:47.274Z,4.50
2023-04-02T04:48:48.481Z,4.90
2023-04-02T04:49:48.703Z,5.20
2023-04-02T04:50:49.483Z,5.10
2023-04-02T04:51:48.282Z,4.90
2023-04-02T04:52:46.363Z,5.20
2023-04-02T04:53:47.334Z,5.50
2023-04-02T04:54:49.193Z,5.10
2023-04-02T04:55:47.016Z,5.50
2023-04-02T04:56:48.627Z,5.70
2023-04-02T04:57:48.106Z,4.90
2023-04-02T04:58:47.098Z,5.60
2023-04-02T04:59:51.526Z,5.10
2023-04-02T05:00:46.170Z,6.10
2023-04-02T05:01:48.848Z,5.30
2023-04-02T05:02:49.033Z,6.30
2023-04-02T05:03:48.989Z,4.90
2023-04-02T05:04:53.128Z,5.20
2023-04-02T05:05:48.131Z,5.00
2023-04-02T05:06:48.596Z,5.10
2023-04-02T05:07:48.752Z,4.90
2023-04-02T05:08:48.707Z,4.40
2023-04-02T05:09:48.338Z,5.10
2023-04-02T05:10:46.623Z,5.20
2023-04-02T05:11:49.373Z,5.40
2023-04-02T05:12:48.215Z,5.20
2023-04-02T05:13:48.779Z,5.20
2023-04-02T05:15:05.210Z,4.20
2023-04-02T05:15:47.721Z,4.60
2023-04-02T05:16:46.757Z,5.00
2023-04-02T05:17:46.944Z,5.20
2023-04-02T05:18:47.541Z,5.30
2023-04-02T05:19:48.488Z,5.10
2023-04-02T05:20:48.081Z,4.90
2023-04-02T05:21:49.212Z,5.20
2023-04-02T05:22:47.601Z,5.40
2023-04-02T05:23:48.808Z,5.50
2023-04-02T05:24:48.649Z,5.20
2023-04-02T05:25:48.852Z,5.60
2023-04-02T05:26:48.141Z,5.50
2023-04-02T05:27:47.554Z,5.10
2023-04-02T05:28:46.879Z,5.50
2023-04-02T05:29:48.015Z,5.70
2023-04-02T05:30:49.061Z,7.00
2023-04-02T05:31:47.782Z,5.80
2023-04-02T05:32:46.077Z,5.90
2023-04-02T05:33:47.528Z,5.80
2023-04-02T05:34:47.116Z,5.60
2023-04-02T05:35:47.281Z,5.90
2023-04-02T05:36:48.358Z,5.70
2023-04-02T05:37:48.177Z,5.30
2023-04-02T05:38:46.134Z,5.90
2023-04-02T05:39:47.240Z,6.30
2023-04-02T05:40:49.048Z,6.60
2023-04-02T05:41:45.657Z,5.90
2023-04-02T05:42:45.633Z,6.10
2023-04-02T05:43:45.621Z,6.50
2023-04-02T05:44:45.629Z,7.50
2023-04-02T05:45:45.600Z,6.90
2023-04-02T05:46:45.673Z,6.70
2023-04-02T05:47:45.648Z,6.40
2023-04-02T05:48:45.608Z,6.50
2023-04-02T05:49:45.571Z,7.20
2023-04-02T05:50:45.585Z,9.30
2023-04-02T05:51:45.565Z,8.30
2023-04-02T05:52:45.565Z,7.70
2023-04-02T05:53:45.556Z,6.90
2023-04-02T05:54:46.590Z,7.70
2023-04-02T05:55:45.548Z,8.60
2023-04-02T05:56:45.565Z,7.90
2023-04-02T05:57:54.894Z,7.50
2023-04-02T05:58:47.616Z,8.00
2023-04-02T05:59:45.553Z,9.10
2023-04-02T06:00:45.504Z,8.20
2023-04-02T06:01:45.590Z,8.10
2023-04-02T06:02:45.517Z,8.40
2023-04-02T06:03:45.592Z,7.80
2023-04-02T06:04:45.493Z,7.00
2023-04-02T06:05:45.510Z,8.70
2023-04-02T06:06:45.548Z,7.40
2023-04-02T06:07:45.511Z,7.50
2023-04-02T06:08:45.470Z,7.70
2023-04-02T06:09:45.505Z,7.70
2023-04-02T06:10:45.492Z,6.90
2023-04-02T06:11:45.483Z,8.20
2023-04-02T06:12:45.442Z,7.90
2023-04-02T06:13:45.446Z,7.70
2023-04-02T06:14:45.447Z,8.80
2023-04-02T06:15:47.242Z,8.20
2023-04-02T06:16:45.490Z,7.40
2023-04-02T06:17:45.447Z,7.20
2023-04-02T06:18:45.424Z,9.80
2023-04-02T06:19:45.410Z,7.10
2023-04-02T06:20:45.475Z,7.50
2023-04-02T06:21:45.415Z,8.80
2023-04-02T06:22:45.406Z,7.50
2023-04-02T06:23:45.423Z,6.80
2023-04-02T06:24:45.399Z,7.80
2023-04-02T06:25:45.529Z,8.10
2023-04-02T06:26:45.388Z,7.70
2023-04-02T06:27:45.366Z,6.50
2023-04-02T06:28:45.363Z,6.40
2023-04-02T06:29:45.428Z,6.30
2023-04-02T06:30:45.368Z,7.70
2023-04-02T06:31:45.675Z,7.10
2023-04-02T06:32:45.390Z,6.90
2023-04-02T06:33:45.332Z,6.60
2023-04-02T06:34:45.316Z,8.80
2023-04-02T06:35:45.339Z,7.60
2023-04-02T06:36:45.321Z,5.90
2023-04-02T06:37:45.314Z,7.00
2023-04-02T06:38:45.311Z,7.10
2023-04-02T06:39:45.317Z,7.10
2023-04-02T06:40:45.309Z,7.00
2023-04-02T06:41:45.299Z,5.90
2023-04-02T06:42:45.274Z,7.00
2023-04-02T06:43:45.258Z,7.90
2023-04-02T06:44:45.278Z,7.10
2023-04-02T06:45:45.285Z,7.90
2023-04-02T06:46:45.273Z,6.30
2023-04-02T06:47:45.316Z,7.60
2023-04-02T06:48:45.235Z,7.00
2023-04-02T06:49:45.226Z,7.20
2023-04-02T06:50:45.268Z,7.00
2023-04-02T06:51:45.236Z,8.20
2023-04-02T06:52:45.216Z,6.20
2023-04-02T06:53:45.208Z,7.20
2023-04-02T06:54:45.237Z,7.70
2023-04-02T06:55:45.203Z,7.60
2023-04-02T06:56:45.214Z,6.80
2023-04-02T06:57:45.186Z,8.00
2023-04-02T06:58:45.183Z,7.10
2023-04-02T06:59:45.213Z,7.80
2023-04-02T07:00:46.184Z,6.90
2023-04-02T07:01:45.229Z,8.50
2023-04-02T07:02:45.254Z,7.30
2023-04-02T07:03:45.138Z,6.90
2023-04-02T07:04:45.223Z,6.90
2023-04-02T07:05:45.135Z,7.40
2023-04-02T07:06:45.132Z,8.90
2023-04-02T07:07:45.113Z,8.40
2023-04-02T07:08:45.110Z,9.70
2023-04-02T07:09:45.105Z,8.30
2023-04-02T07:10:45.131Z,7.50
2023-04-02T07:11:45.100Z,10.80
2023-04-02T07:12:45.091Z,9.50
2023-04-02T07:13:45.077Z,11.10
2023-04-02T07:14:45.104Z,10.00
2023-04-02T07:15:45.094Z,9.90
2023-04-02T07:16:45.098Z,13.30
2023-04-02T07:17:45.097Z,8.90
2023-04-02T07:18:45.094Z,8.70
2023-04-02T07:19:45.118Z,8.50
2023-04-02T07:20:45.044Z,11.50
2023-04-02T07:21:45.049Z,7.80
2023-04-02T07:22:45.063Z,8.40
2023-04-02T07:23:45.043Z,7.80
2023-04-02T07:24:45.016Z,6.60
2023-04-02T07:25:45.021Z,5.30
2023-04-02T07:26:45.035Z,6.30
2023-04-02T07:27:45.006Z,7.10
2023-04-02T07:28:45.019Z,8.20
2023-04-02T07:29:45.053Z,8.00
2023-04-02T07:30:45.056Z,5.40
2023-04-02T07:31:45.020Z,5.40
2023-04-02T07:32:45.133Z,6.00
2023-04-02T07:33:44.989Z,7.80
2023-04-02T07:34:45.043Z,6.80
2023-04-02T07:35:44.982Z,6.70
2023-04-02T07:36:44.947Z,9.60
2023-04-02T07:37:44.940Z,12.90
2023-04-02T07:38:44.977Z,7.00
2023-04-02T07:39:44.995Z,6.00
2023-04-02T07:40:44.918Z,6.80
2023-04-02T07:41:44.979Z,7.50
2023-04-02T07:42:44.973Z,7.30
2023-04-02T07:43:44.993Z,8.80
2023-04-02T07:44:44.969Z,9.00
2023-04-02T07:45:44.900Z,12.60
2023-04-02T07:46:44.942Z,10.20
2023-04-02T07:47:44.966Z,7.70
2023-04-02T07:48:44.926Z,8.00
2023-04-02T07:49:44.936Z,11.40
2023-04-02T07:50:44.915Z,8.20
2023-04-02T07:51:44.927Z,7.00
2023-04-02T07:52:44.883Z,9.10
2023-04-02T07:53:44.910Z,8.30
2023-04-02T07:54:44.848Z,8.10
2023-04-02T07:55:44.851Z,8.50
2023-04-02T07:56:44.870Z,8.80
2023-04-02T07:57:46.805Z,7.30
2023-04-02T07:58:45.862Z,7.50
2023-04-02T07:59:44.853Z,11.50
2023-04-02T08:00:44.840Z,12.00
2023-04-02T08:01:44.920Z,12.90
2023-04-02T08:02:44.885Z,9.90
2023-04-02T08:03:44.895Z,5.90
2023-04-02T08:04:44.848Z,6.90
2023-04-02T08:05:44.832Z,7.30
2023-04-02T08:06:44.804Z,8.40
2023-04-02T08:07:44.787Z,8.90
2023-04-02T08:08:44.801Z,8.50
2023-04-02T08:09:44.776Z,7.50
2023-04-02T08:10:44.732Z,7.10
2023-04-02T08:11:44.766Z,7.20
2023-04-02T08:12:44.763Z,7.90
2023-04-02T08:13:44.743Z,7.80
2023-04-02T08:14:44.715Z,7.00
2023-04-02T08:15:44.760Z,8.10
2023-04-02T08:16:44.743Z,7.50
2023-04-02T08:17:44.760Z,7.30
2023-04-02T08:18:44.711Z,6.50
2023-04-02T08:19:54.296Z,6.60
2023-04-02T08:20:46.708Z,5.40
2023-04-02T08:21:44.707Z,4.40
2023-04-02T08:22:44.754Z,4.90
2023-04-02T08:23:45.613Z,3.60
2023-04-02T08:24:44.673Z,5.30
2023-04-02T08:25:44.674Z,4.00
2023-04-02T08:26:45.528Z,4.30
2023-04-02T08:27:44.684Z,4.10
2023-04-02T08:28:44.662Z,3.40
2023-04-02T08:29:44.694Z,5.00
2023-04-02T08:30:44.697Z,3.70
2023-04-02T08:31:44.613Z,3.90
2023-04-02T08:32:44.684Z,4.00
2023-04-02T08:33:44.679Z,4.50
2023-04-02T08:34:44.696Z,5.50
2023-04-02T08:35:44.638Z,6.20
2023-04-02T08:36:44.637Z,6.80
2023-04-02T08:37:44.601Z,7.00
2023-04-02T08:38:44.626Z,7.00
2023-04-02T08:39:44.629Z,7.10
2023-04-02T08:40:44.597Z,6.60
2023-04-02T08:41:44.551Z,6.90
2023-04-02T08:42:44.597Z,5.40
2023-04-02T08:43:44.594Z,4.80
2023-04-02T08:44:44.578Z,5.90
2023-04-02T08:45:44.575Z,5.60
2023-04-02T08:46:44.557Z,5.20
2023-04-02T08:47:44.583Z,4.70
2023-04-02T08:48:44.504Z,7.00
2023-04-02T08:49:44.496Z,5.60
2023-04-02T08:50:44.554Z,4.40
2023-04-02T08:51:44.509Z,4.30
2023-04-02T08:52:44.506Z,5.90
2023-04-02T08:53:45.068Z,3.80
2023-04-02T08:54:44.534Z,4.50
2023-04-02T08:55:44.515Z,6.10
2023-04-02T08:56:44.477Z,6.40
2023-04-02T08:57:44.495Z,5.10
2023-04-02T08:58:44.477Z,4.20
2023-04-02T08:59:45.477Z,5.80
2023-04-02T09:00:44.461Z,8.20
2023-04-02T09:01:44.503Z,6.60
2023-04-02T09:02:44.486Z,6.00
2023-04-02T09:03:44.459Z,6.60
2023-04-02T09:04:44.466Z,6.50
2023-04-02T09:05:44.421Z,6.00
2023-04-02T09:06:44.415Z,6.90
2023-04-02T09:07:45.133Z,7.40
2023-04-02T09:08:46.353Z,5.80
2023-04-02T09:09:44.484Z,9.00
2023-04-02T09:10:44.378Z,7.90
2023-04-02T09:11:45.157Z,7.70
2023-04-02T09:12:44.382Z,6.40
2023-04-02T09:13:44.450Z,5.70
2023-04-02T09:14:44.391Z,6.30
2023-04-02T09:15:44.365Z,2.80
2023-04-02T09:16:44.340Z,3.40
2023-04-02T09:17:53.525Z,3.20
2023-04-02T09:18:46.380Z,3.00
2023-04-02T09:19:44.363Z,5.80
2023-04-02T09:20:44.356Z,7.50
2023-04-02T09:21:44.439Z,9.10
2023-04-02T09:22:44.318Z,11.90
2023-04-02T09:23:44.322Z,3.90
2023-04-02T09:24:44.331Z,3.70
2023-04-02T09:25:48.501Z,4.30
2023-04-02T09:26:45.352Z,2.90
2023-04-02T09:27:44.347Z,3.10
2023-04-02T09:28:44.301Z,2.70
2023-04-02T09:29:44.280Z,3.40
2023-04-02T09:30:44.302Z,3.20
2023-04-02T09:31:45.053Z,2.60
2023-04-02T09:32:44.319Z,3.20
2023-04-02T09:33:44.240Z,3.00
2023-04-02T09:36:05.114Z,3.40
2023-04-02T09:36:44.214Z,3.60
2023-04-02T09:37:44.216Z,3.30
2023-04-02T09:38:44.265Z,3.50
2023-04-02T09:39:44.228Z,3.90
2023-04-02T09:40:44.251Z,3.90
2023-04-02T09:41:48.193Z,3.00
2023-04-02T09:42:45.388Z,3.40
2023-04-02T09:43:44.313Z,3.40
2023-04-02T09:44:44.205Z,3.50
2023-04-02T09:45:44.220Z,4.90
2023-04-02T09:46:44.224Z,4.20
2023-04-02T09:47:44.188Z,3.40
2023-04-02T09:48:44.258Z,3.50
2023-04-02T09:49:44.151Z,3.40
2023-04-02T09:50:44.283Z,5.10
2023-04-02T09:51:44.293Z,3.30
2023-04-02T09:52:44.342Z,3.40
2023-04-02T09:53:45.298Z,3.80
2023-04-02T09:54:44.169Z,4.30
2023-04-02T09:55:44.149Z,3.60
2023-04-02T09:56:44.128Z,6.10
2023-04-02T09:57:44.095Z,4.00
2023-04-02T09:58:44.121Z,4.20
2023-04-02T09:59:44.149Z,3.40
2023-04-02T10:00:44.440Z,5.50
2023-04-02T10:01:44.369Z,4.60
2023-04-02T10:02:44.152Z,4.50
2023-04-02T10:03:44.109Z,4.90
2023-04-02T10:04:44.266Z,4.30
2023-04-02T10:05:44.329Z,4.10
2023-04-02T10:06:44.040Z,4.50
2023-04-02T10:07:44.094Z,6.60
2023-04-02T10:08:44.062Z,4.30
2023-04-02T10:09:44.057Z,3.90
2023-04-02T10:10:44.662Z,5.60
2023-04-02T10:11:46.706Z,5.30
2023-04-02T10:12:45.008Z,4.30
2023-04-02T10:13:44.020Z,5.20
2023-04-02T10:14:44.051Z,4.40
2023-04-02T10:15:44.005Z,4.60
2023-04-02T10:16:44.089Z,3.60
2023-04-02T10:17:44.129Z,4.80
2023-04-02T10:18:44.053Z,3.70
2023-04-02T10:19:44.069Z,3.80
2023-04-02T10:20:50.985Z,3.90
2023-04-02T10:21:46.016Z,3.40
2023-04-02T10:22:43.986Z,2.80
2023-04-02T10:23:43.988Z,4.40
2023-04-02T10:24:44.033Z,5.30
2023-04-02T10:25:44.036Z,5.70
2023-04-02T10:26:43.971Z,4.90
2023-04-02T10:27:43.937Z,3.80
2023-04-02T10:28:43.964Z,3.80
2023-04-02T10:29:43.918Z,4.40
2023-04-02T10:30:44.071Z,5.00
2023-04-02T10:31:43.919Z,6.50
2023-04-02T10:32:43.997Z,7.10
2023-04-02T10:33:44.581Z,8.30
2023-04-02T10:34:43.921Z,7.80
2023-04-02T10:35:43.919Z,3.70
2023-04-02T10:36:43.875Z,4.30
2023-04-02T10:37:43.884Z,4.00
2023-04-02T10:38:43.894Z,3.90
2023-04-02T10:39:43.853Z,4.60
2023-04-02T10:40:43.874Z,3.20
2023-04-02T10:41:43.863Z,3.90
2023-04-02T10:42:43.845Z,5.40
2023-04-02T10:43:43.865Z,4.80
2023-04-02T10:44:43.858Z,4.60
2023-04-02T10:45:43.865Z,3.60
2023-04-02T10:46:43.874Z,4.40
2023-04-02T10:47:43.864Z,3.60
2023-04-02T10:48:43.854Z,5.10
2023-04-02T10:49:43.866Z,3.60
2023-04-02T10:50:44.747Z,4.90
2023-04-02T10:51:43.829Z,2.90
2023-04-02T10:52:44.931Z,4.40
2023-04-02T10:53:44.152Z,5.60
2023-04-02T10:54:43.887Z,4.60
2023-04-02T10:55:43.838Z,4.20
2023-04-02T10:56:50.603Z,3.90
2023-04-02T10:57:45.767Z,4.60
2023-04-02T10:58:43.756Z,3.50
2023-04-02T10:59:43.786Z,3.00
2023-04-02T11:00:44.620Z,3.60
2023-04-02T11:01:43.823Z,3.20
2023-04-02T11:02:43.760Z,4.00
2023-04-02T11:03:44.713Z,4.40
2023-04-02T11:04:43.735Z,3.60
2023-04-02T11:05:43.799Z,4.00
2023-04-02T11:06:43.695Z,3.30
2023-04-02T11:07:43.703Z,3.50
2023-04-02T11:08:43.703Z,2.80
2023-04-02T11:09:43.756Z,3.20
2023-04-02T11:10:43.721Z,3.80
2023-04-02T11:11:43.657Z,3.50
2023-04-02T11:12:43.707Z,3.80
2023-04-02T11:13:44.642Z,2.70
2023-04-02T11:14:44.583Z,3.90
2023-04-02T11:15:43.674Z,3.20
2023-04-02T11:16:44.758Z,3.90
2023-04-02T11:17:44.654Z,3.80
2023-04-02T11:18:44.496Z,2.80
2023-04-02T11:19:43.653Z,2.50
2023-04-02T11:20:43.830Z,4.60
2023-04-02T11:21:57.407Z,3.20
2023-04-02T11:22:45.587Z,4.20
2023-04-02T11:23:43.591Z,3.10
2023-04-02T11:24:43.591Z,3.60
2023-04-02T11:25:43.640Z,2.90
2023-04-02T11:26:43.590Z,3.70
2023-04-02T11:27:43.616Z,4.00
2023-04-02T11:28:43.564Z,3.00
2023-04-02T11:29:43.568Z,2.90
2023-04-02T11:30:44.588Z,3.00
2023-04-02T11:31:43.646Z,3.60
2023-04-02T11:32:43.609Z,3.40
2023-04-02T11:33:45.607Z,2.90
2023-04-02T11:34:44.564Z,3.60
2023-04-02T11:35:43.576Z,3.80
2023-04-02T11:36:43.565Z,3.90
2023-04-02T11:37:43.528Z,3.80
2023-04-02T11:38:43.505Z,2.40
2023-04-02T11:39:43.514Z,3.20
2023-04-02T11:40:43.509Z,3.10
2023-04-02T11:41:43.557Z,4.50
2023-04-02T11:42:43.545Z,4.90
2023-04-02T11:43:43.551Z,3.10
2023-04-02T11:44:43.522Z,4.20
2023-04-02T11:45:52.368Z,3.70
2023-04-02T11:46:45.620Z,3.70
2023-04-02T11:47:43.531Z,3.70
2023-04-02T11:48:43.486Z,3.30
2023-04-02T11:49:43.450Z,3.40
2023-04-02T11:50:43.503Z,4.70
2023-04-02T11:51:43.438Z,4.40
2023-04-02T11:52:43.574Z,4.50
2023-04-02T11:53:43.454Z,5.20
2023-04-02T11:54:43.425Z,4.20
2023-04-02T11:55:43.448Z,4.60
2023-04-02T11:56:43.405Z,3.40
2023-04-02T11:57:43.428Z,3.20
2023-04-02T11:58:43.421Z,2.70
2023-04-02T11:59:44.380Z,3.30
2023-04-02T12:00:43.408Z,4.30
2023-04-02T12:01:43.449Z,3.40
2023-04-02T12:02:43.556Z,3.30
2023-04-02T12:03:43.384Z,5.20
2023-04-02T12:04:43.425Z,4.60
2023-04-02T12:05:44.077Z,4.80
2023-04-02T12:06:43.377Z,5.40
2023-04-02T12:07:43.350Z,5.10
2023-04-02T12:08:54.693Z,11.10
2023-04-02T12:09:45.315Z,5.10
2023-04-02T12:10:43.599Z,3.30
2023-04-02T12:11:43.347Z,3.10
2023-04-02T12:12:43.335Z,2.70
2023-04-02T12:13:43.314Z,4.40
2023-04-02T12:14:43.335Z,5.80
2023-04-02T12:15:43.300Z,5.00
2023-04-02T12:16:43.383Z,3.00
2023-04-02T12:17:43.321Z,2.90
2023-04-02T12:18:43.273Z,4.60
2023-04-02T12:19:43.305Z,2.50
2023-04-02T12:20:43.292Z,3.60
2023-04-02T12:21:43.290Z,3.80
2023-04-02T12:22:43.314Z,3.80
2023-04-02T12:23:50.389Z,6.00
2023-04-02T12:24:43.274Z,3.40
2023-04-02T12:25:43.251Z,3.60
2023-04-02T12:26:43.218Z,3.20
2023-04-02T12:27:43.237Z,4.10
2023-04-02T12:28:43.225Z,4.20
2023-04-02T12:29:44.080Z,3.30
2023-04-02T12:30:43.237Z,6.10
2023-04-02T12:31:43.177Z,4.10
2023-04-02T12:32:43.615Z,5.40
2023-04-02T12:33:43.193Z,5.30
2023-04-02T12:34:43.225Z,3.80
2023-04-02T12:35:43.259Z,3.70
2023-04-02T12:36:43.199Z,3.60
2023-04-02T12:37:43.193Z,4.20
2023-04-02T12:38:43.151Z,5.20
2023-04-02T12:39:43.159Z,3.50
2023-04-02T12:40:43.129Z,3.90
2023-04-02T12:41:43.182Z,3.20
2023-04-02T12:42:43.146Z,3.30
2023-04-02T12:43:43.153Z,6.50
2023-04-02T12:44:43.153Z,3.10
2023-04-02T12:45:43.102Z,3.40
2023-04-02T12:46:43.119Z,4.90
2023-04-02T12:47:43.126Z,3.20
2023-04-02T12:48:43.103Z,3.70
2023-04-02T12:49:43.450Z,3.30
2023-04-02T12:50:43.077Z,4.80
2023-04-02T12:51:43.090Z,3.90
2023-04-02T12:52:43.056Z,3.60
2023-04-02T12:53:43.083Z,3.30
2023-04-02T12:54:43.029Z,3.70
2023-04-02T12:55:43.041Z,4.00
2023-04-02T12:56:43.063Z,3.10
2023-04-02T12:57:43.088Z,4.40
2023-04-02T12:58:43.031Z,4.00
2023-04-02T12:59:43.021Z,3.70
2023-04-02T13:00:43.014Z,3.20
2023-04-02T13:01:44.044Z,5.00
2023-04-02T13:02:43.004Z,4.30
2023-04-02T13:03:43.057Z,3.00
2023-04-02T13:04:42.984Z,4.60
2023-04-02T13:05:42.992Z,3.20
2023-04-02T13:06:42.964Z,4.40
2023-04-02T13:07:42.961Z,4.40
2023-04-02T13:08:43.006Z,5.10
2023-04-02T13:09:42.954Z,3.60
2023-04-02T13:10:42.963Z,4.00
2023-04-02T13:11:42.963Z,5.70
2023-04-02T13:12:43.963Z,3.80
2023-04-02T13:13:43.062Z,2.80
2023-04-02T13:14:42.951Z,4.40
2023-04-02T13:15:42.951Z,3.20
2023-04-02T13:16:42.932Z,2.60
2023-04-02T13:17:43.010Z,3.00
2023-04-02T13:18:43.013Z,5.00
2023-04-02T13:19:42.923Z,3.40